createdAt,value
2017-11-18T00:01:15.956Z,37.70
2017-11-18T00:03:45.143Z,36.57
2017-11-18T00:09:15.005Z,36.27
2017-11-18T00:11:50.431Z,38.47
2017-11-18T00:14:18.623Z,36.83
2017-11-18T00:16:54.580Z,40.13
2017-11-18T00:19:22.764Z,38.70
2017-11-18T00:21:57.796Z,39.07
2017-11-18T00:24:32.003Z,41.63
2017-11-18T00:27:05.819Z,39.87
2017-11-18T00:29:33.922Z,43.50
2017-11-18T00:32:13.724Z,40.27
2017-11-18T00:34:43.911Z,39.20
2017-11-18T00:37:13.064Z,38.47
2017-11-18T00:39:41.139Z,39.63
2017-11-18T00:42:26.523Z,43.43
2017-11-18T00:45:01.257Z,42.77
2017-11-18T00:47:33.914Z,42.10
2017-11-18T00:50:02.048Z,42.40
2017-11-18T00:52:30.172Z,40.23
2017-11-18T00:55:02.317Z,42.27
2017-11-18T01:00:25.508Z,39.67
2017-11-18T01:02:57.272Z,44.50
2017-11-18T01:05:43.657Z,41.13
2017-11-18T01:08:15.507Z,42.37
2017-11-18T01:10:57.096Z,40.87
2017-11-18T01:13:25.284Z,41.10
2017-11-18T01:18:47.940Z,42.60
2017-11-18T01:21:30.573Z,40.40
2017-11-18T01:23:59.797Z,39.03
2017-11-18T01:26:29.981Z,39.70
2017-11-18T01:29:02.708Z,42.47
2017-11-18T01:31:30.882Z,41.10
2017-11-18T01:36:58.299Z,39.47
2017-11-18T01:39:37.092Z,42.73
2017-11-18T01:42:05.219Z,38.87
2017-11-18T01:47:35.864Z,40.13
2017-11-18T01:50:07.627Z,43.20
2017-11-18T01:52:35.870Z,44.27
2017-11-18T01:55:04.084Z,42.10
2017-11-18T02:00:20.784Z,40.97
2017-11-18T02:02:48.883Z,37.50
2017-11-18T02:05:17.073Z,40.17
2017-11-18T02:07:58.779Z,37.17
2017-11-18T02:10:30.584Z,36.60
2017-11-18T02:12:58.671Z,39.37
2017-11-18T02:15:30.534Z,36.13
2017-11-18T02:18:05.877Z,39.73
2017-11-18T02:20:37.336Z,35.40
2017-11-18T02:23:18.782Z,36.60
2017-11-18T02:25:54.627Z,38.13
2017-11-18T02:28:29.068Z,39.73
2017-11-18T02:30:57.285Z,37.00
2017-11-18T02:33:40.172Z,37.67
2017-11-18T02:36:08.292Z,35.40
2017-11-18T02:38:54.438Z,36.47
2017-11-18T02:41:29.984Z,35.97
2017-11-18T02:44:06.558Z,32.60
2017-11-18T02:46:34.658Z,37.73
2017-11-18T02:49:09.436Z,35.70
2017-11-18T02:51:42.540Z,34.33
2017-11-18T02:54:17.468Z,39.90
2017-11-18T02:56:49.154Z,36.97
2017-11-18T03:02:15.579Z,38.63
2017-11-18T03:04:51.217Z,34.87
2017-11-18T03:07:20.617Z,37.10
2017-11-18T03:09:48.832Z,35.20
2017-11-18T03:12:34.886Z,35.17
2017-11-18T03:15:03.075Z,37.53
2017-11-18T03:17:46.183Z,38.10
2017-11-18T03:20:15.883Z,39.00
2017-11-18T03:22:47.421Z,35.60
2017-11-18T03:25:19.021Z,35.60
2017-11-18T03:27:47.111Z,36.03
2017-11-18T03:30:23.673Z,34.20
2017-11-18T03:32:56.573Z,35.53
2017-11-18T03:38:14.631Z,35.13
2017-11-18T03:40:50.051Z,35.33
2017-11-18T03:43:28.651Z,31.40
2017-11-18T03:45:56.890Z,30.50
2017-11-18T03:48:38.541Z,30.30
2017-11-18T03:51:07.770Z,27.90
2017-11-18T03:53:35.901Z,27.70
2017-11-18T03:56:17.071Z,28.20
2017-11-18T03:58:53.656Z,27.77
2017-11-18T04:01:32.272Z,25.73
2017-11-18T04:04:08.016Z,25.77
2017-11-18T04:06:43.876Z,21.93
2017-11-18T04:09:12.077Z,23.67
2017-11-18T04:11:40.189Z,25.53
2017-11-18T04:14:12.427Z,24.33
2017-11-18T04:16:53.875Z,23.60
2017-11-18T04:19:26.002Z,28.70
2017-11-18T04:21:57.624Z,26.80
2017-11-18T04:24:38.977Z,27.60
2017-11-18T04:27:07.088Z,26.90
2017-11-18T04:29:35.195Z,27.57
2017-11-18T04:32:10.474Z,28.53
2017-11-18T04:34:55.935Z,26.00
2017-11-18T04:37:24.063Z,28.33
2017-11-18T04:40:00.071Z,27.27
2017-11-18T04:42:28.284Z,28.67
2017-11-18T04:45:04.984Z,24.20
2017-11-18T04:47:40.497Z,25.97
2017-11-18T04:53:05.543Z,22.80
2017-11-18T04:58:28.570Z,23.50
2017-11-18T05:01:08.123Z,24.47
2017-11-18T05:06:24.226Z,24.23
2017-11-18T05:09:06.617Z,21.93
2017-11-18T05:11:34.691Z,22.63
2017-11-18T05:14:20.782Z,24.50
2017-11-18T05:19:51.219Z,23.43
2017-11-18T05:22:20.455Z,20.70
2017-11-18T05:24:52.807Z,21.60
2017-11-18T05:27:22.936Z,20.30
2017-11-18T05:32:39.108Z,20.30
2017-11-18T05:35:07.383Z,20.90
2017-11-18T05:37:35.629Z,19.90
2017-11-18T05:40:07.448Z,20.67
2017-11-18T05:45:28.303Z,21.97
2017-11-18T05:48:04.599Z,22.57
2017-11-18T05:50:39.035Z,23.93
2017-11-18T05:53:07.114Z,22.63
2017-11-18T05:58:26.462Z,21.80
2017-11-18T06:03:52.728Z,20.03
2017-11-18T06:06:38.081Z,21.73
2017-11-18T06:09:19.579Z,19.63
2017-11-18T06:14:52.777Z,18.77
2017-11-18T06:17:26.366Z,18.57
2017-11-18T06:20:07.157Z,19.57
2017-11-18T06:22:42.669Z,20.60
2017-11-18T06:25:09.228Z,18.73
2017-11-18T06:27:45.504Z,21.90
2017-11-18T06:30:33.432Z,21.03
2017-11-18T06:33:13.056Z,19.17
2017-11-18T06:35:41.244Z,19.97
2017-11-18T06:38:07.372Z,17.90
2017-11-18T06:40:33.503Z,20.40
2017-11-18T06:43:22.304Z,19.23
2017-11-18T06:45:56.876Z,20.40
2017-11-18T06:48:23.008Z,20.00
2017-11-18T06:50:49.156Z,21.30
2017-11-18T06:53:15.948Z,20.60
2017-11-18T06:58:35.176Z,19.33
2017-11-18T07:01:12.885Z,20.03
2017-11-18T07:03:47.616Z,17.40
2017-11-18T07:06:30.196Z,17.77
2017-11-18T07:09:06.780Z,17.60
2017-11-18T07:11:37.323Z,19.03
2017-11-18T07:14:10.587Z,17.60
2017-11-18T07:16:44.007Z,17.00
2017-11-18T07:19:17.484Z,18.30
2017-11-18T07:21:43.680Z,19.03
2017-11-18T07:24:27.266Z,19.23
2017-11-18T07:26:59.747Z,19.27
2017-11-18T07:29:25.765Z,20.57
2017-11-18T07:31:51.901Z,22.50
2017-11-18T07:34:24.079Z,20.10
2017-11-18T07:39:47.445Z,19.70
2017-11-18T07:45:06.867Z,22.27
2017-11-18T07:47:32.957Z,19.93
2017-11-18T07:49:59.124Z,18.50
2017-11-18T07:52:34.726Z,18.17
2017-11-18T07:55:00.860Z,17.63
2017-11-18T07:57:42.044Z,15.47
2017-11-18T08:02:58.665Z,14.57
2017-11-18T08:05:24.696Z,12.73
2017-11-18T08:07:58.180Z,14.30
2017-11-18T08:10:38.440Z,14.47
2017-11-18T08:13:08.962Z,15.30
2017-11-18T08:18:42.881Z,14.90
2017-11-18T08:21:09.016Z,18.70
2017-11-18T08:23:35.216Z,17.50
2017-11-18T08:26:01.382Z,19.40
2017-11-18T08:28:28.168Z,17.90
2017-11-18T08:30:58.903Z,19.10
2017-11-18T08:33:39.024Z,17.70
2017-11-18T08:36:23.983Z,19.13
2017-11-18T08:39:01.155Z,18.33
2017-11-18T08:44:01.860Z,18.80
2017-11-18T08:46:27.984Z,17.63
2017-11-18T08:49:02.465Z,19.53
2017-11-18T08:51:32.856Z,19.03
2017-11-18T08:54:05.292Z,20.53
2017-11-18T08:56:32.084Z,19.60
2017-11-18T08:59:00.251Z,20.27
2017-11-18T09:01:26.284Z,20.60
2017-11-18T09:04:00.992Z,20.40
2017-11-18T09:06:34.562Z,21.30
2017-11-18T09:09:00.692Z,19.10
2017-11-18T09:11:39.619Z,20.80
2017-11-18T09:14:28.054Z,20.07
2017-11-18T09:16:54.233Z,21.37
2017-11-18T09:19:20.260Z,19.73
2017-11-18T09:21:50.045Z,19.10
2017-11-18T09:24:19.454Z,21.27
2017-11-18T09:26:56.208Z,21.60
2017-11-18T09:29:22.462Z,23.07
2017-11-18T09:31:50.333Z,20.17
2017-11-18T09:34:18.477Z,20.13
2017-11-18T09:36:54.776Z,21.87
2017-11-18T09:39:33.520Z,21.43
2017-11-18T09:42:01.692Z,20.63
2017-11-18T09:44:42.767Z,20.77
2017-11-18T09:47:14.432Z,20.90
2017-11-18T09:49:43.808Z,19.57
2017-11-18T09:52:09.948Z,22.67
2017-11-18T09:54:43.456Z,21.30
2017-11-18T09:57:17.262Z,26.40
2017-11-18T09:59:52.920Z,22.07
2017-11-18T10:02:20.773Z,22.17
2017-11-18T10:04:47.639Z,21.17
2017-11-18T10:07:26.724Z,20.53
2017-11-18T10:09:52.880Z,21.23
2017-11-18T10:12:26.123Z,19.17
2017-11-18T10:14:55.600Z,19.63
2017-11-18T10:17:28.880Z,16.97
2017-11-18T10:19:55.688Z,15.23
2017-11-18T10:22:23.854Z,16.13
2017-11-18T10:24:49.900Z,14.30
2017-11-18T10:27:19.865Z,15.50
2017-11-18T10:29:47.740Z,15.57
2017-11-18T10:32:33.284Z,13.60
2017-11-18T10:34:59.346Z,14.60
2017-11-18T10:37:26.633Z,14.53
2017-11-18T10:39:54.861Z,13.47
2017-11-18T10:42:41.964Z,14.07
2017-11-18T10:45:11.708Z,13.70
2017-11-18T10:47:52.763Z,12.67
2017-11-18T10:50:34.421Z,12.40
2017-11-18T10:53:18.376Z,11.73
2017-11-18T10:56:02.631Z,11.50
2017-11-18T10:58:35.373Z,9.97
2017-11-18T11:01:02.311Z,12.07
2017-11-18T11:03:43.112Z,9.50
2017-11-18T11:06:23.711Z,10.70
2017-11-18T11:08:53.361Z,10.73
2017-11-18T11:11:29.890Z,11.10
2017-11-18T11:14:02.697Z,11.10
2017-11-18T11:16:49.988Z,11.50
2017-11-18T11:19:33.723Z,12.77
2017-11-18T11:22:09.020Z,13.67
2017-11-18T11:24:38.498Z,10.73
2017-11-18T11:27:09.732Z,8.63
2017-11-18T11:29:35.900Z,7.43
2017-11-18T11:32:06.598Z,8.07
2017-11-18T11:34:53.856Z,8.90
2017-11-18T11:37:28.528Z,8.43
2017-11-18T11:39:59.476Z,8.60
2017-11-18T11:42:32.307Z,8.40
2017-11-18T11:45:11.121Z,10.07
2017-11-18T11:47:41.546Z,9.97
2017-11-18T11:50:12.005Z,10.77
2017-11-18T11:52:40.447Z,9.13
2017-11-18T11:55:11.320Z,8.43
2017-11-18T11:57:37.925Z,9.93
2017-11-18T12:00:04.024Z,8.73
2017-11-18T12:02:31.209Z,7.60
2017-11-18T12:04:59.033Z,7.67
2017-11-18T12:07:32.049Z,7.50
2017-11-18T12:10:01.532Z,8.60
2017-11-18T12:12:32.645Z,7.87
2017-11-18T12:15:13.724Z,6.40
2017-11-18T12:17:43.408Z,5.87
2017-11-18T12:20:34.889Z,5.73
2017-11-18T12:23:00.917Z,4.57
2017-11-18T12:25:33.471Z,4.93
2017-11-18T12:28:08.257Z,5.03
2017-11-18T12:30:39.621Z,5.50
2017-11-18T12:33:07.001Z,4.50
2017-11-18T12:35:35.082Z,4.40
2017-11-18T12:38:03.186Z,6.00
2017-11-18T12:40:46.748Z,5.57
2017-11-18T12:43:14.066Z,5.97
2017-11-18T12:46:01.851Z,5.30
2017-11-18T12:48:35.925Z,5.20
2017-11-18T12:51:06.753Z,5.50
2017-11-18T12:53:42.138Z,5.53
2017-11-18T12:56:15.631Z,7.90
2017-11-18T12:58:45.452Z,5.60
2017-11-18T13:01:26.711Z,6.23
2017-11-18T13:04:04.506Z,8.70
2017-11-18T13:06:36.569Z,8.27
2017-11-18T13:09:08.856Z,6.10
2017-11-18T13:14:42.675Z,5.90
2017-11-18T13:17:17.314Z,7.17
2017-11-18T13:19:59.371Z,5.93
2017-11-18T13:22:27.951Z,6.17
2017-11-18T13:25:05.651Z,6.00
2017-11-18T13:27:44.532Z,5.03
2017-11-18T13:33:17.914Z,5.77
2017-11-18T13:35:49.321Z,6.40
2017-11-18T13:38:19.665Z,6.63
2017-11-18T13:40:47.549Z,7.37
2017-11-18T13:43:18.433Z,5.57
2017-11-18T13:45:59.421Z,6.77
2017-11-18T13:48:31.350Z,7.80
2017-11-18T13:50:57.852Z,6.50
2017-11-18T13:53:29.408Z,8.27
2017-11-18T13:55:56.296Z,6.27
2017-11-18T13:58:29.360Z,8.33
2017-11-18T14:00:59.785Z,9.63
2017-11-18T14:03:29.731Z,9.17
2017-11-18T14:05:56.852Z,7.30
2017-11-18T14:08:28.268Z,7.93
2017-11-18T14:11:00.742Z,6.27
2017-11-18T14:13:27.841Z,8.53
2017-11-18T14:16:02.346Z,7.10
2017-11-18T14:18:30.332Z,9.50
2017-11-18T14:21:04.714Z,8.53
2017-11-18T14:23:32.829Z,6.87
2017-11-18T14:25:58.910Z,5.90
2017-11-18T14:28:25.116Z,7.13
2017-11-18T14:30:53.279Z,6.20
2017-11-18T14:33:29.940Z,6.20
2017-11-18T14:36:10.149Z,5.87
2017-11-18T14:38:36.224Z,6.40
2017-11-18T14:41:05.523Z,7.83
2017-11-18T14:43:31.712Z,6.00
2017-11-18T14:46:00.865Z,7.50
2017-11-18T14:48:42.722Z,6.87
2017-11-18T14:51:19.320Z,6.80
2017-11-18T14:54:00.891Z,6.87
2017-11-18T14:56:32.527Z,6.17
2017-11-18T14:59:05.960Z,6.00
2017-11-18T15:01:39.467Z,6.07
2017-11-18T15:04:07.690Z,5.70
2017-11-18T15:06:33.897Z,5.63
2017-11-18T15:09:01.023Z,4.60
2017-11-18T15:11:33.797Z,5.40
2017-11-18T15:14:21.388Z,5.60
2017-11-18T15:17:01.199Z,6.27
2017-11-18T15:19:35.528Z,4.60
2017-11-18T15:22:13.920Z,4.40
2017-11-18T15:24:59.382Z,6.30
2017-11-18T15:27:34.923Z,5.00
2017-11-18T15:30:31.223Z,6.73
2017-11-18T15:33:01.058Z,5.53
2017-11-18T15:35:45.876Z,3.37
2017-11-18T15:38:22.095Z,6.23
2017-11-18T15:40:51.268Z,5.83
2017-11-18T15:43:19.227Z,4.80
2017-11-18T15:45:55.592Z,5.07
2017-11-18T15:48:28.540Z,5.10
2017-11-18T15:51:01.383Z,4.33
2017-11-18T15:53:38.676Z,4.90
2017-11-18T15:56:10.893Z,4.80
2017-11-18T15:58:42.120Z,5.00
2017-11-18T16:01:42.783Z,4.87
2017-11-18T16:04:17.872Z,5.10
2017-11-18T16:06:47.030Z,4.60
2017-11-18T16:09:13.913Z,4.67
2017-11-18T16:11:41.079Z,3.93
2017-11-18T16:14:21.253Z,3.63
2017-11-18T16:16:47.311Z,3.70
2017-11-18T16:19:31.567Z,4.57
2017-11-18T16:21:58.427Z,3.73
2017-11-18T16:24:24.540Z,3.97
2017-11-18T16:26:51.387Z,3.57
2017-11-18T16:29:34.253Z,4.80
2017-11-18T16:32:00.352Z,4.27
2017-11-18T16:34:31.156Z,3.80
2017-11-18T16:36:57.237Z,4.53
2017-11-18T16:39:29.416Z,4.23
2017-11-18T16:42:02.640Z,5.17
2017-11-18T16:44:31.275Z,4.30
2017-11-18T16:46:58.392Z,4.67
2017-11-18T16:49:35.190Z,4.63
2017-11-18T16:52:03.089Z,4.17
2017-11-18T16:54:32.460Z,3.93
2017-11-18T16:56:59.302Z,4.33
2017-11-18T16:59:25.332Z,4.93
2017-11-18T17:02:05.256Z,4.13
2017-11-18T17:04:31.472Z,4.37
2017-11-18T17:06:58.591Z,4.67
2017-11-18T17:09:25.376Z,4.60
2017-11-18T17:12:07.136Z,4.40
2017-11-18T17:14:41.528Z,5.10
2017-11-18T17:17:16.180Z,4.20
2017-11-18T17:19:42.256Z,4.20
2017-11-18T17:22:09.327Z,3.33
2017-11-18T17:24:36.421Z,4.40
2017-11-18T17:27:10.373Z,3.30
2017-11-18T17:29:36.555Z,4.97
2017-11-18T17:32:07.044Z,5.00
2017-11-18T17:34:33.198Z,4.73
2017-11-18T17:37:13.947Z,4.70
2017-11-18T17:39:50.524Z,3.60
2017-11-18T17:42:16.586Z,3.80
2017-11-18T17:44:48.537Z,3.93
2017-11-18T17:47:15.368Z,3.40
2017-11-18T17:49:42.248Z,2.13
2017-11-18T17:52:23.579Z,2.90
2017-11-18T17:54:49.789Z,3.43
2017-11-18T17:57:20.598Z,3.20
2017-11-18T17:59:46.657Z,3.67
2017-11-18T18:02:15.928Z,3.10
2017-11-18T18:04:41.981Z,3.10
2017-11-18T18:07:08.063Z,3.23
2017-11-18T18:09:35.201Z,3.57
2017-11-18T18:12:01.360Z,3.43
2017-11-18T18:14:36.919Z,3.87
2017-11-18T18:17:03.709Z,3.23
2017-11-18T18:19:38.384Z,3.37
2017-11-18T18:22:05.332Z,2.67
2017-11-18T18:24:36.901Z,3.13
2017-11-18T18:27:11.488Z,2.90
2017-11-18T18:29:37.697Z,3.83
2017-11-18T18:32:04.788Z,3.37
2017-11-18T18:37:03.379Z,4.77
2017-11-18T18:39:29.548Z,3.67
2017-11-18T18:41:57.464Z,4.37
2017-11-18T18:44:24.630Z,4.07
2017-11-18T18:46:57.021Z,3.53
2017-11-18T18:49:23.163Z,4.20
2017-11-18T18:54:54.416Z,3.83
2017-11-18T18:57:25.144Z,3.90
2017-11-18T18:59:51.172Z,4.10
2017-11-18T19:02:19.274Z,3.37
2017-11-18T19:05:04.116Z,3.90
2017-11-18T19:07:30.147Z,4.90
2017-11-18T19:10:02.542Z,4.13
2017-11-18T19:15:26.044Z,5.23
2017-11-18T19:18:06.986Z,7.80
2017-11-18T19:20:40.660Z,4.70
2017-11-18T19:23:06.877Z,5.00
2017-11-18T19:28:30.025Z,4.30
2017-11-18T19:31:01.738Z,4.83
2017-11-18T19:33:39.391Z,4.63
2017-11-18T19:36:09.373Z,3.70
2017-11-18T19:38:52.778Z,4.80
2017-11-18T19:41:19.575Z,4.40
2017-11-18T19:46:50.233Z,4.23
2017-11-18T19:49:30.638Z,4.30
2017-11-18T19:52:00.708Z,4.40
2017-11-18T19:54:37.772Z,4.90
2017-11-18T19:57:14.696Z,4.40
2017-11-18T19:59:48.097Z,4.57
2017-11-18T20:02:27.653Z,5.70
2017-11-18T20:04:58.899Z,4.13
2017-11-18T20:07:46.080Z,4.77
2017-11-18T20:10:12.221Z,4.63
2017-11-18T20:12:40.299Z,4.87
2017-11-18T20:15:06.498Z,5.27
2017-11-18T20:17:57.674Z,5.13
2017-11-18T20:20:37.740Z,5.53
2017-11-18T20:23:10.964Z,8.60
2017-11-18T20:25:37.262Z,7.40
2017-11-18T20:28:07.003Z,7.70
2017-11-18T20:30:48.465Z,6.07
2017-11-18T20:33:17.980Z,6.10
2017-11-18T20:35:55.135Z,6.03
2017-11-18T20:38:25.463Z,6.50
2017-11-18T20:41:05.789Z,5.90
2017-11-18T20:43:33.754Z,5.87
